createdAt,value
2023-04-18T00:00:29.339Z,9.44
2023-04-18T00:03:34.791Z,8.93
2023-04-18T00:06:39.897Z,9.15
2023-04-18T00:09:44.839Z,9.62
2023-04-18T00:12:49.390Z,9.21
2023-04-18T00:15:54.208Z,9.27
2023-04-18T00:19:02.357Z,9.20
2023-04-18T00:22:07.110Z,8.78
2023-04-18T00:25:11.656Z,9.03
2023-04-18T00:28:16.122Z,8.69
2023-04-18T00:31:20.635Z,8.82
2023-04-18T00:34:25.200Z,8.82
2023-04-18T00:37:31.381Z,8.47
2023-04-18T00:40:36.280Z,8.31
2023-04-18T00:43:42.224Z,8.39
2023-04-18T00:46:47.189Z,8.27
2023-04-18T00:49:51.763Z,8.35
2023-04-18T00:52:56.732Z,8.55
2023-04-18T00:56:04.383Z,8.89
2023-04-18T00:59:10.190Z,8.71
2023-04-18T01:02:14.703Z,8.69
2023-04-18T01:05:21.209Z,8.88
2023-04-18T01:08:26.083Z,8.72
2023-04-18T01:11:30.588Z,9.14
2023-04-18T01:17:55.352Z,9.10
2023-04-18T01:21:00.347Z,9.12
2023-04-18T01:24:09.383Z,9.49
2023-04-18T01:27:14.242Z,9.83
2023-04-18T01:30:18.646Z,9.57
2023-04-18T01:33:23.421Z,9.64
2023-04-18T01:36:27.974Z,9.69
2023-04-18T01:39:32.405Z,9.12
2023-04-18T01:42:36.971Z,8.81
2023-04-18T01:45:41.409Z,9.03
2023-04-18T01:48:46.668Z,8.06
2023-04-18T01:51:51.164Z,8.50
2023-04-18T01:54:56.990Z,8.29
2023-04-18T01:58:01.491Z,8.28
2023-04-18T02:01:06.036Z,8.10
2023-04-18T02:04:10.674Z,8.16
2023-04-18T02:07:16.100Z,8.71
2023-04-18T02:10:21.071Z,8.89
2023-04-18T02:13:26.931Z,8.85
2023-04-18T02:16:31.534Z,8.84
2023-04-18T02:19:36.114Z,9.30
2023-04-18T02:22:43.058Z,8.79
2023-04-18T02:25:47.594Z,9.29
2023-04-18T02:28:55.663Z,9.49
2023-04-18T02:32:00.183Z,9.19
2023-04-18T02:35:05.049Z,9.50
2023-04-18T02:38:09.616Z,9.40
2023-04-18T02:41:17.327Z,9.27
2023-04-18T02:44:21.914Z,9.53
2023-04-18T02:47:26.615Z,9.14
2023-04-18T02:50:32.026Z,9.28
2023-04-18T02:53:36.558Z,9.64
2023-04-18T02:56:42.816Z,9.55
2023-04-18T02:59:56.364Z,9.70
2023-04-18T03:03:04.026Z,9.65
2023-04-18T03:06:17.102Z,9.45
2023-04-18T03:09:21.854Z,9.57
2023-04-18T03:12:32.553Z,9.82
2023-04-18T03:15:38.023Z,9.66
2023-04-18T03:18:43.710Z,9.35
2023-04-18T03:21:48.365Z,9.80
2023-04-18T03:24:53.298Z,9.81
2023-04-18T03:28:01.166Z,9.73
2023-04-18T03:31:06.427Z,9.33
2023-04-18T03:34:14.190Z,9.82
2023-04-18T03:37:18.994Z,9.39
2023-04-18T03:40:28.348Z,9.64
2023-04-18T03:43:38.215Z,9.53
2023-04-18T03:46:44.309Z,8.83
2023-04-18T03:49:49.646Z,8.81
2023-04-18T03:52:55.026Z,8.95
2023-04-18T03:55:59.680Z,9.08
2023-04-18T03:59:18.513Z,8.99
2023-04-18T04:02:27.007Z,8.74
2023-04-18T04:05:31.595Z,9.07
2023-04-18T04:08:36.758Z,9.63
2023-04-18T04:11:41.510Z,9.73
2023-04-18T04:14:48.907Z,9.88
2023-04-18T04:17:53.678Z,9.71
2023-04-18T04:20:59.274Z,9.76
2023-04-18T04:24:19.060Z,9.82
2023-04-18T04:27:26.854Z,9.92
2023-04-18T04:30:31.703Z,9.84
2023-04-18T04:33:38.825Z,9.81
2023-04-18T04:36:48.493Z,9.72
2023-04-18T04:39:53.240Z,10.09
2023-04-18T04:43:15.349Z,9.86
2023-04-18T04:46:23.086Z,9.57
2023-04-18T04:49:28.104Z,10.23
2023-04-18T04:52:32.696Z,10.10
2023-04-18T04:55:39.258Z,10.22
2023-04-18T04:58:44.706Z,10.33
2023-04-18T05:02:01.154Z,9.76
2023-04-18T05:05:05.958Z,10.37
2023-04-18T05:08:10.795Z,10.55
2023-04-18T05:11:15.998Z,10.69
2023-04-18T05:14:20.842Z,10.87
2023-04-18T05:17:25.338Z,10.24
2023-04-18T05:20:29.849Z,10.60
2023-04-18T05:23:37.251Z,10.56
2023-04-18T05:26:42.543Z,9.94
2023-04-18T05:29:48.473Z,10.09
2023-04-18T05:32:53.001Z,10.16
2023-04-18T05:35:58.923Z,9.66
2023-04-18T05:39:04.066Z,9.92
2023-04-18T05:42:08.567Z,10.17
2023-04-18T05:45:13.214Z,10.45
2023-04-18T05:48:18.026Z,9.39
2023-04-18T05:51:22.804Z,10.02
2023-04-18T05:54:27.476Z,10.58
2023-04-18T05:57:32.124Z,9.69
2023-04-18T06:00:36.991Z,9.81
2023-04-18T06:03:42.259Z,9.81
2023-04-18T06:06:47.983Z,10.55
2023-04-18T06:09:53.941Z,10.33
2023-04-18T06:12:58.387Z,10.45
2023-04-18T06:16:03.632Z,10.18
2023-04-18T06:19:09.943Z,9.87
2023-04-18T06:22:14.436Z,10.20
2023-04-18T06:25:19.025Z,10.22
2023-04-18T06:28:23.738Z,10.67
2023-04-18T06:31:28.347Z,10.39
2023-04-18T06:34:33.048Z,11.02
2023-04-18T06:37:37.921Z,10.23
2023-04-18T06:40:42.357Z,10.89
2023-04-18T06:44:14.597Z,10.39
2023-04-18T06:47:11.551Z,10.69
2023-04-18T06:50:16.364Z,11.01
2023-04-18T06:53:20.940Z,10.77
2023-04-18T06:56:26.096Z,10.85
2023-04-18T06:59:30.680Z,10.40
2023-04-18T07:02:37.219Z,10.53
2023-04-18T07:05:41.811Z,10.62
2023-04-18T07:08:46.356Z,10.63
2023-04-18T07:11:52.474Z,11.44
2023-04-18T07:14:57.291Z,11.10
2023-04-18T07:18:01.868Z,10.76
2023-04-18T07:21:09.494Z,11.47
2023-04-18T07:24:14.404Z,11.42
2023-04-18T07:27:19.937Z,11.20
2023-04-18T07:30:24.431Z,11.75
2023-04-18T07:33:31.785Z,11.13
2023-04-18T07:36:36.296Z,11.76
2023-04-18T07:39:41.281Z,11.90
2023-04-18T07:42:45.972Z,11.03
2023-04-18T07:45:52.012Z,11.15
2023-04-18T07:48:56.549Z,10.89
2023-04-18T07:52:00.956Z,10.90
2023-04-18T07:55:05.973Z,11.07
2023-04-18T07:58:10.524Z,10.74
2023-04-18T08:01:18.126Z,11.33
2023-04-18T08:04:22.712Z,11.02
2023-04-18T08:07:27.349Z,10.98
2023-04-18T08:10:31.868Z,10.77
2023-04-18T08:13:36.364Z,10.70
2023-04-18T08:16:40.913Z,10.98
2023-04-18T08:19:46.040Z,11.36
2023-04-18T08:26:01.832Z,10.58
2023-04-18T08:29:06.469Z,10.90
2023-04-18T08:32:11.118Z,10.88
2023-04-18T08:35:16.110Z,11.12
2023-04-18T08:38:21.055Z,10.83
2023-04-18T08:41:26.727Z,11.06
2023-04-18T08:44:31.286Z,11.34
2023-04-18T08:47:35.870Z,11.25
2023-04-18T08:50:41.514Z,11.30
2023-04-18T08:53:48.280Z,11.11
2023-04-18T08:57:16.639Z,10.68
2023-04-18T09:00:22.705Z,11.27
2023-04-18T09:03:40.110Z,10.88
2023-04-18T09:06:53.567Z,10.75
2023-04-18T09:09:58.144Z,11.14
2023-04-18T09:13:04.233Z,11.67
2023-04-18T09:16:08.866Z,11.41
2023-04-18T09:19:18.437Z,11.00
2023-04-18T09:22:23.282Z,11.93
2023-04-18T09:25:36.043Z,11.54
2023-04-18T09:28:41.200Z,11.46
2023-04-18T09:32:01.746Z,11.58
2023-04-18T09:35:06.578Z,11.94
2023-04-18T09:38:11.006Z,11.74
2023-04-18T09:41:18.336Z,11.67
2023-04-18T09:44:24.601Z,11.29
2023-04-18T09:47:29.691Z,12.51
2023-04-18T09:50:35.571Z,12.00
2023-04-18T09:53:44.535Z,12.77
2023-04-18T09:56:51.705Z,12.29
2023-04-18T10:00:03.667Z,12.59
2023-04-18T10:03:13.415Z,12.55
2023-04-18T10:06:18.123Z,12.73
2023-04-18T10:09:23.062Z,12.61
2023-04-18T10:12:27.583Z,12.29
2023-04-18T10:15:32.916Z,12.77
2023-04-18T10:18:37.541Z,12.30
2023-04-18T10:21:51.429Z,12.50
2023-04-18T10:24:56.986Z,11.87
2023-04-18T10:28:02.870Z,11.97
2023-04-18T10:31:07.833Z,11.99
2023-04-18T10:34:17.429Z,11.92
2023-04-18T10:37:21.986Z,11.71
2023-04-18T10:40:34.242Z,12.43
2023-04-18T10:44:08.456Z,11.66
2023-04-18T10:47:18.333Z,11.75
2023-04-18T10:50:23.006Z,12.18
2023-04-18T10:53:27.514Z,11.86
2023-04-18T10:56:32.069Z,11.37
2023-04-18T10:59:42.317Z,11.82
2023-04-18T11:02:53.623Z,12.14
2023-04-18T11:06:02.843Z,12.23
2023-04-18T11:09:13.593Z,12.19
2023-04-18T11:12:18.184Z,12.08
2023-04-18T11:15:25.131Z,11.99
2023-04-18T11:18:42.011Z,11.70
2023-04-18T11:21:46.861Z,11.85
2023-04-18T11:24:51.306Z,12.14
2023-04-18T11:27:59.430Z,12.64
2023-04-18T11:31:03.988Z,12.44
2023-04-18T11:34:08.450Z,12.41
2023-04-18T11:37:16.001Z,11.99
2023-04-18T11:40:20.751Z,11.96
2023-04-18T11:43:25.669Z,12.20
2023-04-18T11:46:39.633Z,12.49
2023-04-18T11:49:45.937Z,11.78
2023-04-18T11:52:52.311Z,12.62
2023-04-18T11:55:56.846Z,12.26
2023-04-18T11:59:08.958Z,12.10
2023-04-18T12:02:16.530Z,11.72
2023-04-18T12:05:38.175Z,11.37
2023-04-18T12:08:43.255Z,11.83
2023-04-18T12:12:01.609Z,11.77
2023-04-18T12:15:14.541Z,12.22
2023-04-18T12:18:22.318Z,12.25
2023-04-18T12:21:26.798Z,12.34
2023-04-18T12:24:32.070Z,12.15
2023-04-18T12:28:03.539Z,12.17
2023-04-18T12:31:08.168Z,12.57
2023-04-18T12:34:13.644Z,12.52
2023-04-18T12:37:18.306Z,12.83
2023-04-18T12:40:23.632Z,13.16
2023-04-18T12:43:28.166Z,12.53
2023-04-18T12:46:32.778Z,12.77
2023-04-18T12:49:39.206Z,12.39
2023-04-18T12:52:44.737Z,13.09
2023-04-18T12:55:49.429Z,13.07
2023-04-18T12:58:54.157Z,13.09
2023-04-18T13:01:58.718Z,12.62
2023-04-18T13:05:07.065Z,12.05
2023-04-18T13:08:17.582Z,13.02
2023-04-18T13:11:22.669Z,13.54
2023-04-18T13:14:27.157Z,13.44
2023-04-18T13:17:32.631Z,13.62
2023-04-18T13:20:37.262Z,13.09
2023-04-18T13:23:42.223Z,14.18
2023-04-18T13:26:46.988Z,13.38
2023-04-18T13:29:51.571Z,13.16
2023-04-18T13:32:56.635Z,13.59
2023-04-18T13:36:01.523Z,13.63
2023-04-18T13:39:06.084Z,13.40
2023-04-18T13:42:10.727Z,13.64
2023-04-18T13:45:15.582Z,13.11
2023-04-18T13:48:20.039Z,13.19
2023-04-18T13:51:24.701Z,13.22
2023-04-18T13:54:31.572Z,12.68
2023-04-18T13:57:37.250Z,12.35
2023-04-18T14:00:41.809Z,12.58
2023-04-18T14:03:47.508Z,12.67
2023-04-18T14:06:52.216Z,12.60
2023-04-18T14:09:56.652Z,13.59
2023-04-18T14:13:01.568Z,13.04
2023-04-18T14:16:06.569Z,13.30
2023-04-18T14:19:13.177Z,13.70
2023-04-18T14:22:17.906Z,13.33
2023-04-18T14:25:22.397Z,13.46
2023-04-18T14:28:27.240Z,13.36
2023-04-18T14:31:31.787Z,13.46
2023-04-18T14:34:37.395Z,13.67
2023-04-18T14:37:43.409Z,14.01
2023-04-18T14:40:48.082Z,13.98
2023-04-18T14:43:52.630Z,13.67
2023-04-18T14:46:57.162Z,13.48
2023-04-18T14:50:01.656Z,13.16
2023-04-18T14:53:06.651Z,13.83
2023-04-18T14:56:13.601Z,13.77
2023-04-18T14:59:18.206Z,13.97
2023-04-18T15:02:23.009Z,14.03
2023-04-18T15:05:27.805Z,13.20
2023-04-18T15:08:32.975Z,14.29
2023-04-18T15:11:38.019Z,13.68
2023-04-18T15:14:42.438Z,13.04
2023-04-18T15:17:47.011Z,13.61
2023-04-18T15:20:51.676Z,13.56
2023-04-18T15:23:57.216Z,13.33
2023-04-18T15:27:01.870Z,13.96
2023-04-18T15:30:08.148Z,13.35
2023-04-18T15:33:13.615Z,13.17
2023-04-18T15:36:18.082Z,13.11
2023-04-18T15:39:23.590Z,13.30
2023-04-18T15:42:30.082Z,13.80
2023-04-18T15:45:34.530Z,12.55
2023-04-18T15:48:39.083Z,13.40
2023-04-18T15:51:43.516Z,13.51
2023-04-18T15:54:48.006Z,13.80
2023-04-18T15:57:52.431Z,13.36
2023-04-18T16:00:58.680Z,13.11
2023-04-18T16:04:03.414Z,13.42
2023-04-18T16:07:08.762Z,13.78
2023-04-18T16:10:15.157Z,13.14
2023-04-18T16:13:20.096Z,12.75
2023-04-18T16:16:24.734Z,13.31
2023-04-18T16:19:30.985Z,12.89
2023-04-18T16:22:36.117Z,13.21
2023-04-18T16:25:40.725Z,12.95
2023-04-18T16:28:45.433Z,12.73
2023-04-18T16:31:51.621Z,12.87
2023-04-18T16:34:56.320Z,12.80
2023-04-18T16:38:00.925Z,13.19
2023-04-18T16:41:07.141Z,12.67
2023-04-18T16:44:11.766Z,12.65
2023-04-18T16:47:16.287Z,13.05
2023-04-18T16:50:22.456Z,12.90
2023-04-18T16:53:27.006Z,12.89
2023-04-18T16:56:31.528Z,12.40
2023-04-18T16:59:36.291Z,12.38
2023-04-18T17:02:43.181Z,12.71
2023-04-18T17:05:47.797Z,11.94
2023-04-18T17:08:53.460Z,12.11
2023-04-18T17:11:58.502Z,12.11
2023-04-18T17:15:03.691Z,12.27
2023-04-18T17:18:08.201Z,11.92
2023-04-18T17:21:12.847Z,11.68
2023-04-18T17:24:18.704Z,12.16
2023-04-18T17:27:23.211Z,12.24
2023-04-18T17:30:28.614Z,12.11
2023-04-18T17:33:33.108Z,12.06
2023-04-18T17:36:37.586Z,11.99
2023-04-18T17:39:42.083Z,12.31
2023-04-18T17:42:46.589Z,12.20
2023-04-18T17:45:51.033Z,12.00
2023-04-18T17:48:55.588Z,11.38
2023-04-18T17:52:00.793Z,12.12
2023-04-18T17:55:05.788Z,11.76
2023-04-18T17:58:10.392Z,11.86
2023-04-18T18:01:16.824Z,11.46
2023-04-18T18:04:23.072Z,10.99
2023-04-18T18:07:31.039Z,10.99
2023-04-18T18:10:36.054Z,10.92
2023-04-18T18:13:40.468Z,11.36
2023-04-18T18:16:45.383Z,11.37
2023-04-18T18:19:49.851Z,11.73
2023-04-18T18:22:54.952Z,11.57
2023-04-18T18:26:00.694Z,11.40
2023-04-18T18:29:10.998Z,11.52
2023-04-18T18:32:15.463Z,11.75
2023-04-18T18:35:19.997Z,11.62
2023-04-18T18:38:24.599Z,11.75
2023-04-18T18:41:29.022Z,11.46
2023-04-18T18:44:33.763Z,11.53
2023-04-18T18:47:40.306Z,11.48
2023-04-18T18:50:44.941Z,11.59
2023-04-18T18:53:50.097Z,11.89
2023-04-18T18:56:54.634Z,11.78
2023-04-18T18:59:59.042Z,11.81
2023-04-18T19:03:03.940Z,11.72
2023-04-18T19:06:08.536Z,11.92
2023-04-18T19:09:13.205Z,11.92
2023-04-18T19:12:17.899Z,11.58
2023-04-18T19:15:22.786Z,11.76
2023-04-18T19:18:27.614Z,11.72
2023-04-18T19:21:32.267Z,11.93
2023-04-18T19:24:36.731Z,11.41
2023-04-18T19:27:42.506Z,11.41
2023-04-18T19:30:47.077Z,11.84
2023-04-18T19:33:51.501Z,11.50
2023-04-18T19:36:56.052Z,11.42
2023-04-18T19:40:00.699Z,11.32
2023-04-18T19:43:05.241Z,11.06
2023-04-18T19:46:09.720Z,11.10
2023-04-18T19:49:16.267Z,10.48
2023-04-18T19:52:20.958Z,10.26
2023-04-18T19:55:25.479Z,10.50
2023-04-18T19:58:45.343Z,10.39
2023-04-18T20:01:49.793Z,10.27
2023-04-18T20:04:54.462Z,10.35
2023-04-18T20:07:59.104Z,10.00
2023-04-18T20:11:10.593Z,10.05
2023-04-18T20:14:15.178Z,10.20
2023-04-18T20:17:19.720Z,10.21
2023-04-18T20:20:24.195Z,10.12
2023-04-18T20:23:28.670Z,9.78
2023-04-18T20:26:33.193Z,10.26
2023-04-18T20:29:38.137Z,10.37
2023-04-18T20:32:42.715Z,9.85
2023-04-18T20:35:47.244Z,10.18
2023-04-18T20:38:51.639Z,10.78
2023-04-18T20:41:57.495Z,10.58
2023-04-18T20:45:03.102Z,10.75
2023-04-18T20:48:09.535Z,10.66
2023-04-18T20:51:14.094Z,10.90
2023-04-18T20:54:18.696Z,10.95
2023-04-18T20:57:23.168Z,11.08
2023-04-18T21:00:28.253Z,11.06
2023-04-18T21:03:34.236Z,10.98
2023-04-18T21:06:38.946Z,11.02
2023-04-18T21:09:43.363Z,10.79
2023-04-18T21:12:47.895Z,10.98
2023-04-18T21:15:52.698Z,11.02
2023-04-18T21:18:57.154Z,10.91
2023-04-18T21:22:01.762Z,11.01
2023-04-18T21:25:07.347Z,11.03
2023-04-18T21:28:12.392Z,11.16
2023-04-18T21:31:16.907Z,11.17
2023-04-18T21:34:22.937Z,11.13
2023-04-18T21:37:27.449Z,11.18
2023-04-18T21:40:33.236Z,11.44
2023-04-18T21:43:37.816Z,11.10
2023-04-18T21:46:42.264Z,11.09
2023-04-18T21:49:46.750Z,10.98
2023-04-18T21:52:51.264Z,10.76
2023-04-18T21:55:55.687Z,10.54
2023-04-18T21:59:00.265Z,10.65
2023-04-18T22:02:05.490Z,10.50
2023-04-18T22:05:13.848Z,10.76
2023-04-18T22:08:19.994Z,10.45
2023-04-18T22:11:24.610Z,10.46
2023-04-18T22:14:29.233Z,12.22
2023-04-18T22:17:34.922Z,12.25
2023-04-18T22:20:41.429Z,11.16
2023-04-18T22:23:47.001Z,10.87
2023-04-18T22:26:52.299Z,10.89
2023-04-18T22:29:56.852Z,10.71
2023-04-18T22:33:01.488Z,10.93
2023-04-18T22:36:06.739Z,10.54
2023-04-18T22:39:12.066Z,10.39
2023-04-18T22:42:16.500Z,10.71
2023-04-18T22:45:21.115Z,10.17
2023-04-18T22:48:25.780Z,10.88
2023-04-18T22:51:30.214Z,10.35
2023-04-18T22:54:39.599Z,9.88
2023-04-18T22:57:44.090Z,10.00
2023-04-18T23:00:48.568Z,10.00
2023-04-18T23:03:53.327Z,10.49
2023-04-18T23:06:58.041Z,10.33
2023-04-18T23:10:05.404Z,10.73
2023-04-18T23:13:09.922Z,10.13
2023-04-18T23:16:14.580Z,10.15
2023-04-18T23:19:19.279Z,10.86
2023-04-18T23:22:24.166Z,10.53
2023-04-18T23:25:28.707Z,10.28
2023-04-18T23:28:36.182Z,9.91
2023-04-18T23:31:40.941Z,10.45
2023-04-18T23:34:46.034Z,10.10
2023-04-18T23:37:50.518Z,10.46
2023-04-18T23:40:55.062Z,9.94
2023-04-18T23:43:59.716Z,9.98
2023-04-18T23:47:04.259Z,10.22
2023-04-18T23:50:09.429Z,9.81
2023-04-18T23:53:13.990Z,10.22
2023-04-18T23:56:18.475Z,10.40
2023-04-18T23:59:22.999Z,10.00
